sensor_id;sensor_type;location;lat;lon;timestamp;temperature;humidity
32139;DHT22;18644;48.700;9.210;2023-09-30T00:00:33;19.60;51.80
32139;DHT22;18644;48.700;9.210;2023-09-30T00:03:00;19.60;51.80
32139;DHT22;18644;48.700;9.210;2023-09-30T00:05:27;19.50;51.90
32139;DHT22;18644;48.700;9.210;2023-09-30T00:07:57;19.50;52.00
32139;DHT22;18644;48.700;9.210;2023-09-30T00:10:24;19.50;52.10
32139;DHT22;18644;48.700;9.210;2023-09-30T00:12:51;19.40;52.10
32139;DHT22;18644;48.700;9.210;2023-09-30T00:15:17;19.40;52.10
32139;DHT22;18644;48.700;9.210;2023-09-30T00:17:44;19.30;52.00
32139;DHT22;18644;48.700;9.210;2023-09-30T00:20:11;19.30;52.00
32139;DHT22;18644;48.700;9.210;2023-09-30T00:22:40;19.30;52.10
32139;DHT22;18644;48.700;9.210;2023-09-30T00:25:08;19.20;52.00
32139;DHT22;18644;48.700;9.210;2023-09-30T00:27:35;19.20;52.60
32139;DHT22;18644;48.700;9.210;2023-09-30T00:30:02;19.10;51.90
32139;DHT22;18644;48.700;9.210;2023-09-30T00:32:29;19.00;51.90
32139;DHT22;18644;48.700;9.210;2023-09-30T00:34:56;18.90;51.90
32139;DHT22;18644;48.700;9.210;2023-09-30T00:37:23;18.90;52.00
32139;DHT22;18644;48.700;9.210;2023-09-30T00:39:50;18.80;52.00
32139;DHT22;18644;48.700;9.210;2023-09-30T00:42:18;18.70;52.00
32139;DHT22;18644;48.700;9.210;2023-09-30T00:44:46;18.60;52.20
32139;DHT22;18644;48.700;9.210;2023-09-30T00:47:13;18.60;52.30
32139;DHT22;18644;48.700;9.210;2023-09-30T00:49:41;18.50;52.20
32139;DHT22;18644;48.700;9.210;2023-09-30T00:52:08;18.40;52.30
32139;DHT22;18644;48.700;9.210;2023-09-30T00:54:35;18.40;52.40
32139;DHT22;18644;48.700;9.210;2023-09-30T00:57:03;18.40;52.50
32139;DHT22;18644;48.700;9.210;2023-09-30T00:59:31;18.30;52.70
32139;DHT22;18644;48.700;9.210;2023-09-30T01:01:58;18.30;52.70
32139;DHT22;18644;48.700;9.210;2023-09-30T01:04:26;18.20;52.80
32139;DHT22;18644;48.700;9.210;2023-09-30T01:06:53;18.20;52.90
32139;DHT22;18644;48.700;9.210;2023-09-30T01:09:22;18.10;52.90
32139;DHT22;18644;48.700;9.210;2023-09-30T01:11:49;18.10;52.80
32139;DHT22;18644;48.700;9.210;2023-09-30T01:14:25;18.10;52.90
32139;DHT22;18644;48.700;9.210;2023-09-30T01:16:54;18.10;53.00
32139;DHT22;18644;48.700;9.210;2023-09-30T01:19:21;18.00;53.00
32139;DHT22;18644;48.700;9.210;2023-09-30T01:21:52;18.00;53.10
32139;DHT22;18644;48.700;9.210;2023-09-30T01:24:21;18.00;53.20
32139;DHT22;18644;48.700;9.210;2023-09-30T01:26:48;17.90;53.20
32139;DHT22;18644;48.700;9.210;2023-09-30T01:29:15;17.90;53.30
32139;DHT22;18644;48.700;9.210;2023-09-30T01:31:42;17.90;53.40
32139;DHT22;18644;48.700;9.210;2023-09-30T01:34:13;17.90;53.50
32139;DHT22;18644;48.700;9.210;2023-09-30T01:36:40;17.90;53.70
32139;DHT22;18644;48.700;9.210;2023-09-30T01:39:08;17.90;53.90
32139;DHT22;18644;48.700;9.210;2023-09-30T01:41:35;17.90;54.20
32139;DHT22;18644;48.700;9.210;2023-09-30T01:44:02;17.90;54.40
32139;DHT22;18644;48.700;9.210;2023-09-30T01:46:29;18.00;54.50
32139;DHT22;18644;48.700;9.210;2023-09-30T01:48:56;18.00;54.50
32139;DHT22;18644;48.700;9.210;2023-09-30T01:51:23;18.00;54.40
32139;DHT22;18644;48.700;9.210;2023-09-30T01:53:50;18.00;54.30
32139;DHT22;18644;48.700;9.210;2023-09-30T01:56:18;18.00;54.20
32139;DHT22;18644;48.700;9.210;2023-09-30T01:58:44;18.00;54.10
32139;DHT22;18644;48.700;9.210;2023-09-30T02:01:11;18.00;54.10
32139;DHT22;18644;48.700;9.210;2023-09-30T02:03:38;18.00;54.10
32139;DHT22;18644;48.700;9.210;2023-09-30T02:06:04;18.00;54.20
32139;DHT22;18644;48.700;9.210;2023-09-30T02:08:31;17.90;54.10
32139;DHT22;18644;48.700;9.210;2023-09-30T02:10:58;17.90;54.00
32139;DHT22;18644;48.700;9.210;2023-09-30T02:13:26;17.90;54.00
32139;DHT22;18644;48.700;9.210;2023-09-30T02:15:53;17.80;53.90
32139;DHT22;18644;48.700;9.210;2023-09-30T02:18:20;17.80;53.80
32139;DHT22;18644;48.700;9.210;2023-09-30T02:20:48;17.70;53.80
32139;DHT22;18644;48.700;9.210;2023-09-30T02:23:16;17.70;53.80
32139;DHT22;18644;48.700;9.210;2023-09-30T02:25:43;17.70;53.90
32139;DHT22;18644;48.700;9.210;2023-09-30T02:28:09;17.60;54.00
32139;DHT22;18644;48.700;9.210;2023-09-30T02:30:37;17.60;54.00
32139;DHT22;18644;48.700;9.210;2023-09-30T02:33:05;17.60;54.80
32139;DHT22;18644;48.700;9.210;2023-09-30T02:35:32;17.50;54.30
32139;DHT22;18644;48.700;9.210;2023-09-30T02:37:59;17.50;54.40
32139;DHT22;18644;48.700;9.210;2023-09-30T02:40:26;17.50;54.50
32139;DHT22;18644;48.700;9.210;2023-09-30T02:42:52;17.50;54.50
32139;DHT22;18644;48.700;9.210;2023-09-30T02:45:19;17.40;54.40
32139;DHT22;18644;48.700;9.210;2023-09-30T02:47:47;17.40;54.40
32139;DHT22;18644;48.700;9.210;2023-09-30T02:50:14;17.40;54.40
32139;DHT22;18644;48.700;9.210;2023-09-30T02:52:41;17.40;54.50
32139;DHT22;18644;48.700;9.210;2023-09-30T02:55:08;17.40;54.50
32139;DHT22;18644;48.700;9.210;2023-09-30T02:57:37;17.30;54.70
32139;DHT22;18644;48.700;9.210;2023-09-30T03:00:05;17.30;54.90
32139;DHT22;18644;48.700;9.210;2023-09-30T03:02:47;17.30;55.00
32139;DHT22;18644;48.700;9.210;2023-09-30T03:05:14;17.40;55.30
32139;DHT22;18644;48.700;9.210;2023-09-30T03:07:41;17.40;55.40
32139;DHT22;18644;48.700;9.210;2023-09-30T03:10:08;17.40;55.50
32139;DHT22;18644;48.700;9.210;2023-09-30T03:12:35;17.40;55.60
32139;DHT22;18644;48.700;9.210;2023-09-30T03:15:02;17.40;55.50
32139;DHT22;18644;48.700;9.210;2023-09-30T03:17:29;17.40;55.40
32139;DHT22;18644;48.700;9.210;2023-09-30T03:19:58;17.40;55.30
32139;DHT22;18644;48.700;9.210;2023-09-30T03:22:25;17.40;55.30
32139;DHT22;18644;48.700;9.210;2023-09-30T03:24:52;17.40;55.20
32139;DHT22;18644;48.700;9.210;2023-09-30T03:27:19;17.40;55.30
32139;DHT22;18644;48.700;9.210;2023-09-30T03:29:46;17.40;55.30
32139;DHT22;18644;48.700;9.210;2023-09-30T03:32:13;17.40;55.30
32139;DHT22;18644;48.700;9.210;2023-09-30T03:34:39;17.40;55.50
32139;DHT22;18644;48.700;9.210;2023-09-30T03:37:11;17.40;55.60
32139;DHT22;18644;48.700;9.210;2023-09-30T03:39:38;17.40;55.80
32139;DHT22;18644;48.700;9.210;2023-09-30T03:42:06;17.40;55.90
32139;DHT22;18644;48.700;9.210;2023-09-30T03:44:36;17.40;56.00
32139;DHT22;18644;48.700;9.210;2023-09-30T03:47:04;17.40;56.20
32139;DHT22;18644;48.700;9.210;2023-09-30T03:49:30;17.50;56.30
32139;DHT22;18644;48.700;9.210;2023-09-30T03:51:57;17.50;56.30
32139;DHT22;18644;48.700;9.210;2023-09-30T03:54:25;17.60;56.30
32139;DHT22;18644;48.700;9.210;2023-09-30T03:56:53;17.60;56.20
32139;DHT22;18644;48.700;9.210;2023-09-30T03:59:20;17.50;56.00
32139;DHT22;18644;48.700;9.210;2023-09-30T04:01:46;17.50;56.00
32139;DHT22;18644;48.700;9.210;2023-09-30T04:04:13;17.60;55.90
32139;DHT22;18644;48.700;9.210;2023-09-30T04:06:40;17.50;55.80
32139;DHT22;18644;48.700;9.210;2023-09-30T04:09:07;17.60;55.90
32139;DHT22;18644;48.700;9.210;2023-09-30T04:11:38;17.50;55.80
32139;DHT22;18644;48.700;9.210;2023-09-30T04:14:06;17.50;55.80
32139;DHT22;18644;48.700;9.210;2023-09-30T04:16:33;17.50;55.70
32139;DHT22;18644;48.700;9.210;2023-09-30T04:19:00;17.50;55.70
32139;DHT22;18644;48.700;9.210;2023-09-30T04:21:27;17.50;55.60
32139;DHT22;18644;48.700;9.210;2023-09-30T04:23:59;17.40;55.60
32139;DHT22;18644;48.700;9.210;2023-09-30T04:26:26;17.40;55.60
32139;DHT22;18644;48.700;9.210;2023-09-30T04:28:54;17.40;55.70
32139;DHT22;18644;48.700;9.210;2023-09-30T04:31:21;17.40;55.70
32139;DHT22;18644;48.700;9.210;2023-09-30T04:33:48;17.30;55.70
32139;DHT22;18644;48.700;9.210;2023-09-30T04:36:16;17.30;55.70
32139;DHT22;18644;48.700;9.210;2023-09-30T04:38:43;17.30;55.70
32139;DHT22;18644;48.700;9.210;2023-09-30T04:41:10;17.30;55.80
32139;DHT22;18644;48.700;9.210;2023-09-30T04:43:37;17.30;55.80
32139;DHT22;18644;48.700;9.210;2023-09-30T04:46:06;17.20;55.80
32139;DHT22;18644;48.700;9.210;2023-09-30T04:48:34;17.20;55.80
32139;DHT22;18644;48.700;9.210;2023-09-30T04:51:01;17.20;56.00
32139;DHT22;18644;48.700;9.210;2023-09-30T04:53:30;17.20;56.00
32139;DHT22;18644;48.700;9.210;2023-09-30T04:55:59;17.20;56.10
32139;DHT22;18644;48.700;9.210;2023-09-30T04:58:26;17.20;56.20
32139;DHT22;18644;48.700;9.210;2023-09-30T05:00:54;17.20;56.30
32139;DHT22;18644;48.700;9.210;2023-09-30T05:03:23;17.20;56.40
32139;DHT22;18644;48.700;9.210;2023-09-30T05:05:50;17.20;56.40
32139;DHT22;18644;48.700;9.210;2023-09-30T05:08:18;17.20;56.40
32139;DHT22;18644;48.700;9.210;2023-09-30T05:10:45;17.20;56.40
32139;DHT22;18644;48.700;9.210;2023-09-30T05:13:13;17.20;56.40
32139;DHT22;18644;48.700;9.210;2023-09-30T05:15:40;17.20;56.50
32139;DHT22;18644;48.700;9.210;2023-09-30T05:18:07;17.20;56.50
32139;DHT22;18644;48.700;9.210;2023-09-30T05:20:36;17.20;56.60
32139;DHT22;18644;48.700;9.210;2023-09-30T05:23:04;17.20;56.60
32139;DHT22;18644;48.700;9.210;2023-09-30T05:25:32;17.20;56.70
32139;DHT22;18644;48.700;9.210;2023-09-30T05:27:59;17.20;56.70
32139;DHT22;18644;48.700;9.210;2023-09-30T05:30:25;17.30;56.80
32139;DHT22;18644;48.700;9.210;2023-09-30T05:32:52;17.30;56.80
32139;DHT22;18644;48.700;9.210;2023-09-30T05:35:19;17.30;56.90
32139;DHT22;18644;48.700;9.210;2023-09-30T05:37:50;17.30;57.00
32139;DHT22;18644;48.700;9.210;2023-09-30T05:40:18;17.30;57.00
32139;DHT22;18644;48.700;9.210;2023-09-30T05:42:51;17.30;57.00
32139;DHT22;18644;48.700;9.210;2023-09-30T05:45:19;17.40;57.10
32139;DHT22;18644;48.700;9.210;2023-09-30T05:47:46;17.30;57.10
32139;DHT22;18644;48.700;9.210;2023-09-30T05:50:13;17.40;57.20
32139;DHT22;18644;48.700;9.210;2023-09-30T05:52:41;17.40;57.30
32139;DHT22;18644;48.700;9.210;2023-09-30T05:55:09;17.40;57.20
32139;DHT22;18644;48.700;9.210;2023-09-30T05:57:36;17.50;57.40
32139;DHT22;18644;48.700;9.210;2023-09-30T06:00:04;17.50;57.40
32139;DHT22;18644;48.700;9.210;2023-09-30T06:02:46;17.50;57.60
32139;DHT22;18644;48.700;9.210;2023-09-30T06:05:14;17.60;57.60
32139;DHT22;18644;48.700;9.210;2023-09-30T06:07:44;17.60;57.60
32139;DHT22;18644;48.700;9.210;2023-09-30T06:10:12;17.70;57.70
32139;DHT22;18644;48.700;9.210;2023-09-30T06:12:41;17.70;57.70
32139;DHT22;18644;48.700;9.210;2023-09-30T06:15:08;17.70;57.70
32139;DHT22;18644;48.700;9.210;2023-09-30T06:17:35;17.80;57.80
32139;DHT22;18644;48.700;9.210;2023-09-30T06:20:04;17.80;57.80
32139;DHT22;18644;48.700;9.210;2023-09-30T06:22:34;17.90;57.90
32139;DHT22;18644;48.700;9.210;2023-09-30T06:25:01;17.90;57.90
32139;DHT22;18644;48.700;9.210;2023-09-30T06:27:30;18.00;57.90
32139;DHT22;18644;48.700;9.210;2023-09-30T06:29:57;18.00;57.90
32139;DHT22;18644;48.700;9.210;2023-09-30T06:32:24;18.10;58.00
32139;DHT22;18644;48.700;9.210;2023-09-30T06:34:50;18.10;58.00
32139;DHT22;18644;48.700;9.210;2023-09-30T06:37:18;18.20;57.90
32139;DHT22;18644;48.700;9.210;2023-09-30T06:39:45;18.20;57.90
32139;DHT22;18644;48.700;9.210;2023-09-30T06:42:11;18.30;58.00
32139;DHT22;18644;48.700;9.210;2023-09-30T06:44:40;18.30;58.00
32139;DHT22;18644;48.700;9.210;2023-09-30T06:47:06;18.40;58.10
32139;DHT22;18644;48.700;9.210;2023-09-30T06:49:40;18.40;58.10
32139;DHT22;18644;48.700;9.210;2023-09-30T06:52:07;18.50;58.20
32139;DHT22;18644;48.700;9.210;2023-09-30T06:54:33;18.50;58.30
32139;DHT22;18644;48.700;9.210;2023-09-30T06:57:00;18.60;58.40
32139;DHT22;18644;48.700;9.210;2023-09-30T06:59:27;18.70;58.30
32139;DHT22;18644;48.700;9.210;2023-09-30T07:01:55;18.80;58.20
32139;DHT22;18644;48.700;9.210;2023-09-30T07:04:22;18.80;58.20
32139;DHT22;18644;48.700;9.210;2023-09-30T07:06:49;18.90;58.10
32139;DHT22;18644;48.700;9.210;2023-09-30T07:09:16;19.00;57.90
32139;DHT22;18644;48.700;9.210;2023-09-30T07:11:46;19.00;57.90
32139;DHT22;18644;48.700;9.210;2023-09-30T07:14:15;19.10;58.40
32139;DHT22;18644;48.700;9.210;2023-09-30T07:16:42;19.10;57.90
32139;DHT22;18644;48.700;9.210;2023-09-30T07:19:12;19.10;58.00
32139;DHT22;18644;48.700;9.210;2023-09-30T07:21:41;19.20;57.90
32139;DHT22;18644;48.700;9.210;2023-09-30T07:24:08;19.20;57.80
32139;DHT22;18644;48.700;9.210;2023-09-30T07:26:36;19.30;57.70
32139;DHT22;18644;48.700;9.210;2023-09-30T07:29:03;19.30;57.50
32139;DHT22;18644;48.700;9.210;2023-09-30T07:31:32;19.40;57.60
32139;DHT22;18644;48.700;9.210;2023-09-30T07:34:01;19.40;57.60
32139;DHT22;18644;48.700;9.210;2023-09-30T07:36:29;19.50;58.00
32139;DHT22;18644;48.700;9.210;2023-09-30T07:38:56;19.50;57.70
32139;DHT22;18644;48.700;9.210;2023-09-30T07:41:26;19.60;57.80
32139;DHT22;18644;48.700;9.210;2023-09-30T07:43:52;19.70;57.80
32139;DHT22;18644;48.700;9.210;2023-09-30T07:46:19;19.80;57.70
32139;DHT22;18644;48.700;9.210;2023-09-30T07:48:46;19.90;57.70
32139;DHT22;18644;48.700;9.210;2023-09-30T07:51:13;20.00;57.60
32139;DHT22;18644;48.700;9.210;2023-09-30T07:53:42;20.00;57.60
32139;DHT22;18644;48.700;9.210;2023-09-30T07:56:09;20.20;57.70
32139;DHT22;18644;48.700;9.210;2023-09-30T07:58:35;20.20;57.60
32139;DHT22;18644;48.700;9.210;2023-09-30T08:01:02;20.30;57.70
32139;DHT22;18644;48.700;9.210;2023-09-30T08:03:29;20.50;57.80
32139;DHT22;18644;48.700;9.210;2023-09-30T08:05:56;20.60;57.60
32139;DHT22;18644;48.700;9.210;2023-09-30T08:08:23;20.60;57.50
32139;DHT22;18644;48.700;9.210;2023-09-30T08:10:51;20.70;57.10
32139;DHT22;18644;48.700;9.210;2023-09-30T08:13:21;20.80;57.20
32139;DHT22;18644;48.700;9.210;2023-09-30T08:15:48;20.90;57.30
32139;DHT22;18644;48.700;9.210;2023-09-30T08:18:15;21.00;57.30
32139;DHT22;18644;48.700;9.210;2023-09-30T08:20:42;21.00;57.00
32139;DHT22;18644;48.700;9.210;2023-09-30T08:23:10;21.10;57.10
32139;DHT22;18644;48.700;9.210;2023-09-30T08:25:37;21.20;56.90
32139;DHT22;18644;48.700;9.210;2023-09-30T08:28:06;21.30;56.80
32139;DHT22;18644;48.700;9.210;2023-09-30T08:30:34;21.40;56.70
32139;DHT22;18644;48.700;9.210;2023-09-30T08:33:02;21.40;56.60
32139;DHT22;18644;48.700;9.210;2023-09-30T08:35:29;21.60;56.70
32139;DHT22;18644;48.700;9.210;2023-09-30T08:37:57;21.60;56.50
32139;DHT22;18644;48.700;9.210;2023-09-30T08:40:24;21.70;56.20
32139;DHT22;18644;48.700;9.210;2023-09-30T08:42:52;21.70;56.10
32139;DHT22;18644;48.700;9.210;2023-09-30T08:45:20;21.80;56.20
32139;DHT22;18644;48.700;9.210;2023-09-30T08:47:47;21.80;56.20
32139;DHT22;18644;48.700;9.210;2023-09-30T08:50:15;21.90;56.30
32139;DHT22;18644;48.700;9.210;2023-09-30T08:52:43;21.90;56.20
32139;DHT22;18644;48.700;9.210;2023-09-30T08:55:11;22.00;56.20
32139;DHT22;18644;48.700;9.210;2023-09-30T08:57:39;22.00;56.20
32139;DHT22;18644;48.700;9.210;2023-09-30T09:00:07;22.00;56.10
32139;DHT22;18644;48.700;9.210;2023-09-30T09:02:39;22.10;56.20
32139;DHT22;18644;48.700;9.210;2023-09-30T09:05:06;22.10;56.30
32139;DHT22;18644;48.700;9.210;2023-09-30T09:07:34;22.20;56.30
32139;DHT22;18644;48.700;9.210;2023-09-30T09:10:04;22.30;56.30
32139;DHT22;18644;48.700;9.210;2023-09-30T09:12:33;22.30;56.30
32139;DHT22;18644;48.700;9.210;2023-09-30T09:15:00;22.40;56.30
32139;DHT22;18644;48.700;9.210;2023-09-30T09:17:41;22.50;56.40
32139;DHT22;18644;48.700;9.210;2023-09-30T09:20:09;22.60;56.40
32139;DHT22;18644;48.700;9.210;2023-09-30T09:22:40;22.70;56.30
32139;DHT22;18644;48.700;9.210;2023-09-30T09:25:08;22.80;56.20
32139;DHT22;18644;48.700;9.210;2023-09-30T09:27:35;22.90;56.00
32139;DHT22;18644;48.700;9.210;2023-09-30T09:30:13;23.00;56.20
32139;DHT22;18644;48.700;9.210;2023-09-30T09:35:35;23.30;56.30
32139;DHT22;18644;48.700;9.210;2023-09-30T09:38:03;23.40;56.30
32139;DHT22;18644;48.700;9.210;2023-09-30T09:40:31;23.60;56.00
32139;DHT22;18644;48.700;9.210;2023-09-30T09:43:00;23.80;56.10
32139;DHT22;18644;48.700;9.210;2023-09-30T09:45:30;23.90;56.00
32139;DHT22;18644;48.700;9.210;2023-09-30T09:48:00;24.00;55.80
32139;DHT22;18644;48.700;9.210;2023-09-30T09:50:31;24.20;55.50
32139;DHT22;18644;48.700;9.210;2023-09-30T09:52:58;24.30;55.30
32139;DHT22;18644;48.700;9.210;2023-09-30T09:55:26;24.40;55.00
32139;DHT22;18644;48.700;9.210;2023-09-30T09:57:55;24.50;55.00
32139;DHT22;18644;48.700;9.210;2023-09-30T10:00:24;24.60;55.10
32139;DHT22;18644;48.700;9.210;2023-09-30T10:02:52;24.70;55.10
32139;DHT22;18644;48.700;9.210;2023-09-30T10:05:19;24.80;55.10
32139;DHT22;18644;48.700;9.210;2023-09-30T10:07:50;24.90;55.00
32139;DHT22;18644;48.700;9.210;2023-09-30T10:10:19;25.10;55.00
32139;DHT22;18644;48.700;9.210;2023-09-30T10:12:47;25.20;55.00
32139;DHT22;18644;48.700;9.210;2023-09-30T10:15:34;25.30;54.90
32139;DHT22;18644;48.700;9.210;2023-09-30T10:18:01;25.50;54.70
32139;DHT22;18644;48.700;9.210;2023-09-30T10:20:30;25.60;54.60
32139;DHT22;18644;48.700;9.210;2023-09-30T10:25:52;25.80;54.30
32139;DHT22;18644;48.700;9.210;2023-09-30T10:28:32;26.00;54.00
32139;DHT22;18644;48.700;9.210;2023-09-30T10:31:09;26.10;53.70
32139;DHT22;18644;48.700;9.210;2023-09-30T10:36:36;26.20;52.80
32139;DHT22;18644;48.700;9.210;2023-09-30T10:39:06;26.20;52.90
32139;DHT22;18644;48.700;9.210;2023-09-30T10:41:50;26.20;52.90
32139;DHT22;18644;48.700;9.210;2023-09-30T10:44:33;26.30;52.80
32139;DHT22;18644;48.700;9.210;2023-09-30T10:47:00;26.40;53.10
32139;DHT22;18644;48.700;9.210;2023-09-30T10:50:01;26.50;53.10
32139;DHT22;18644;48.700;9.210;2023-09-30T10:52:29;26.60;53.00
32139;DHT22;18644;48.700;9.210;2023-09-30T10:55:02;26.80;53.10
32139;DHT22;18644;48.700;9.210;2023-09-30T10:57:32;26.90;53.00
32139;DHT22;18644;48.700;9.210;2023-09-30T11:00:09;27.00;52.80
32139;DHT22;18644;48.700;9.210;2023-09-30T11:02:47;27.10;52.70
32139;DHT22;18644;48.700;9.210;2023-09-30T11:05:15;27.20;52.40
32139;DHT22;18644;48.700;9.210;2023-09-30T11:07:42;27.20;51.70
32139;DHT22;18644;48.700;9.210;2023-09-30T11:10:14;27.30;51.50
32139;DHT22;18644;48.700;9.210;2023-09-30T11:12:52;27.20;51.00
32139;DHT22;18644;48.700;9.210;2023-09-30T11:15:20;27.20;50.60
32139;DHT22;18644;48.700;9.210;2023-09-30T11:17:47;27.10;50.20
32139;DHT22;18644;48.700;9.210;2023-09-30T11:20:14;26.90;49.10
32139;DHT22;18644;48.700;9.210;2023-09-30T11:22:42;26.80;49.00
32139;DHT22;18644;48.700;9.210;2023-09-30T11:25:16;26.60;49.50
32139;DHT22;18644;48.700;9.210;2023-09-30T11:27:44;26.50;49.80
32139;DHT22;18644;48.700;9.210;2023-09-30T11:30:12;26.40;50.00
32139;DHT22;18644;48.700;9.210;2023-09-30T11:32:40;26.40;50.50
32139;DHT22;18644;48.700;9.210;2023-09-30T11:35:21;26.40;50.80
32139;DHT22;18644;48.700;9.210;2023-09-30T11:37:49;26.50;50.70
32139;DHT22;18644;48.700;9.210;2023-09-30T11:40:19;26.60;50.80
32139;DHT22;18644;48.700;9.210;2023-09-30T11:43:07;26.60;50.90
32139;DHT22;18644;48.700;9.210;2023-09-30T11:45:37;26.80;50.90
32139;DHT22;18644;48.700;9.210;2023-09-30T11:48:16;26.80;50.70
32139;DHT22;18644;48.700;9.210;2023-09-30T11:50:46;27.00;50.80
32139;DHT22;18644;48.700;9.210;2023-09-30T11:53:16;27.10;51.00
32139;DHT22;18644;48.700;9.210;2023-09-30T11:55:47;27.20;50.10
32139;DHT22;18644;48.700;9.210;2023-09-30T11:58:14;27.20;49.70
32139;DHT22;18644;48.700;9.210;2023-09-30T12:00:44;27.20;49.20
32139;DHT22;18644;48.700;9.210;2023-09-30T12:03:11;27.10;48.60
32139;DHT22;18644;48.700;9.210;2023-09-30T12:05:39;27.00;48.70
32139;DHT22;18644;48.700;9.210;2023-09-30T12:08:05;26.90;48.20
32139;DHT22;18644;48.700;9.210;2023-09-30T12:10:33;26.80;48.20
32139;DHT22;18644;48.700;9.210;2023-09-30T12:13:01;26.70;48.20
32139;DHT22;18644;48.700;9.210;2023-09-30T12:15:28;26.50;47.90
32139;DHT22;18644;48.700;9.210;2023-09-30T12:17:54;26.40;48.10
32139;DHT22;18644;48.700;9.210;2023-09-30T12:20:21;26.30;48.00
32139;DHT22;18644;48.700;9.210;2023-09-30T12:22:48;26.20;48.20
32139;DHT22;18644;48.700;9.210;2023-09-30T12:25:15;26.20;48.60
32139;DHT22;18644;48.700;9.210;2023-09-30T12:27:44;26.10;47.90
32139;DHT22;18644;48.700;9.210;2023-09-30T12:30:13;26.10;47.60
32139;DHT22;18644;48.700;9.210;2023-09-30T12:32:40;26.00;47.80
32139;DHT22;18644;48.700;9.210;2023-09-30T12:35:07;25.90;48.00
32139;DHT22;18644;48.700;9.210;2023-09-30T12:37:35;25.80;48.00
32139;DHT22;18644;48.700;9.210;2023-09-30T12:40:04;25.80;48.00
32139;DHT22;18644;48.700;9.210;2023-09-30T12:42:32;25.80;48.20
32139;DHT22;18644;48.700;9.210;2023-09-30T12:45:00;25.70;48.20
32139;DHT22;18644;48.700;9.210;2023-09-30T12:47:32;25.70;48.30
32139;DHT22;18644;48.700;9.210;2023-09-30T12:49:58;25.60;48.70
32139;DHT22;18644;48.700;9.210;2023-09-30T12:52:25;25.70;48.70
32139;DHT22;18644;48.700;9.210;2023-09-30T12:54:52;25.80;48.50
32139;DHT22;18644;48.700;9.210;2023-09-30T12:57:19;25.80;48.80
32139;DHT22;18644;48.700;9.210;2023-09-30T12:59:45;25.90;49.10
32139;DHT22;18644;48.700;9.210;2023-09-30T13:02:14;26.00;49.20
32139;DHT22;18644;48.700;9.210;2023-09-30T13:04:45;26.00;49.20
32139;DHT22;18644;48.700;9.210;2023-09-30T13:07:12;26.10;49.40
32139;DHT22;18644;48.700;9.210;2023-09-30T13:09:40;26.30;49.60
32139;DHT22;18644;48.700;9.210;2023-09-30T13:12:07;26.40;49.30
32139;DHT22;18644;48.700;9.210;2023-09-30T13:14:33;26.40;49.10
32139;DHT22;18644;48.700;9.210;2023-09-30T13:17:00;26.50;48.20
32139;DHT22;18644;48.700;9.210;2023-09-30T13:19:29;26.50;47.40
32139;DHT22;18644;48.700;9.210;2023-09-30T13:21:59;26.50;47.00
32139;DHT22;18644;48.700;9.210;2023-09-30T13:24:26;26.60;47.60
32139;DHT22;18644;48.700;9.210;2023-09-30T13:26:53;26.60;47.30
32139;DHT22;18644;48.700;9.210;2023-09-30T13:29:20;26.70;47.90
32139;DHT22;18644;48.700;9.210;2023-09-30T13:31:46;26.70;48.30
32139;DHT22;18644;48.700;9.210;2023-09-30T13:34:13;26.80;48.50
32139;DHT22;18644;48.700;9.210;2023-09-30T13:36:41;27.00;47.60
32139;DHT22;18644;48.700;9.210;2023-09-30T13:39:09;27.10;47.80
32139;DHT22;18644;48.700;9.210;2023-09-30T13:41:38;27.10;47.70
32139;DHT22;18644;48.700;9.210;2023-09-30T13:44:05;27.30;48.10
32139;DHT22;18644;48.700;9.210;2023-09-30T13:46:33;27.40;48.10
32139;DHT22;18644;48.700;9.210;2023-09-30T13:49:00;27.50;47.60
32139;DHT22;18644;48.700;9.210;2023-09-30T13:51:26;27.60;47.50
32139;DHT22;18644;48.700;9.210;2023-09-30T13:53:53;27.70;47.80
32139;DHT22;18644;48.700;9.210;2023-09-30T13:56:21;27.80;48.00
32139;DHT22;18644;48.700;9.210;2023-09-30T13:58:48;27.90;47.40
32139;DHT22;18644;48.700;9.210;2023-09-30T14:01:15;27.90;47.20
32139;DHT22;18644;48.700;9.210;2023-09-30T14:03:42;28.00;47.40
32139;DHT22;18644;48.700;9.210;2023-09-30T14:06:10;28.10;47.40
32139;DHT22;18644;48.700;9.210;2023-09-30T14:08:37;28.20;47.50
32139;DHT22;18644;48.700;9.210;2023-09-30T14:11:04;28.30;47.50
32139;DHT22;18644;48.700;9.210;2023-09-30T14:13:32;28.40;47.10
32139;DHT22;18644;48.700;9.210;2023-09-30T14:15:59;28.40;46.50
32139;DHT22;18644;48.700;9.210;2023-09-30T14:18:25;28.40;46.20
32139;DHT22;18644;48.700;9.210;2023-09-30T14:20:52;28.40;46.20
32139;DHT22;18644;48.700;9.210;2023-09-30T14:23:19;28.30;45.70
32139;DHT22;18644;48.700;9.210;2023-09-30T14:25:46;28.30;45.60
32139;DHT22;18644;48.700;9.210;2023-09-30T14:28:12;28.10;45.40
32139;DHT22;18644;48.700;9.210;2023-09-30T14:30:41;28.00;45.00
32139;DHT22;18644;48.700;9.210;2023-09-30T14:33:09;27.80;45.00
32139;DHT22;18644;48.700;9.210;2023-09-30T14:35:36;27.60;44.90
32139;DHT22;18644;48.700;9.210;2023-09-30T14:38:02;27.50;45.00
32139;DHT22;18644;48.700;9.210;2023-09-30T14:40:30;27.30;44.90
32139;DHT22;18644;48.700;9.210;2023-09-30T14:42:56;27.20;45.10
32139;DHT22;18644;48.700;9.210;2023-09-30T14:45:23;27.10;45.20
32139;DHT22;18644;48.700;9.210;2023-09-30T14:47:51;27.00;45.30
32139;DHT22;18644;48.700;9.210;2023-09-30T14:50:18;26.90;45.40
32139;DHT22;18644;48.700;9.210;2023-09-30T14:52:45;26.90;45.70
32139;DHT22;18644;48.700;9.210;2023-09-30T14:55:12;26.80;45.60
32139;DHT22;18644;48.700;9.210;2023-09-30T14:57:41;26.80;45.80
32139;DHT22;18644;48.700;9.210;2023-09-30T15:00:09;26.80;45.70
32139;DHT22;18644;48.700;9.210;2023-09-30T15:02:37;26.80;45.60
32139;DHT22;18644;48.700;9.210;2023-09-30T15:05:07;26.80;45.70
32139;DHT22;18644;48.700;9.210;2023-09-30T15:07:34;26.70;45.60
32139;DHT22;18644;48.700;9.210;2023-09-30T15:10:02;26.70;45.50
32139;DHT22;18644;48.700;9.210;2023-09-30T15:12:30;26.60;45.60
32139;DHT22;18644;48.700;9.210;2023-09-30T15:14:56;26.60;45.50
32139;DHT22;18644;48.700;9.210;2023-09-30T15:17:23;26.60;45.60
32139;DHT22;18644;48.700;9.210;2023-09-30T15:19:50;26.50;45.50
32139;DHT22;18644;48.700;9.210;2023-09-30T15:22:19;26.50;45.60
32139;DHT22;18644;48.700;9.210;2023-09-30T15:24:46;26.50;45.80
32139;DHT22;18644;48.700;9.210;2023-09-30T15:27:13;26.50;45.70
32139;DHT22;18644;48.700;9.210;2023-09-30T15:29:40;26.50;45.80
32139;DHT22;18644;48.700;9.210;2023-09-30T15:32:07;26.50;45.90
32139;DHT22;18644;48.700;9.210;2023-09-30T15:34:35;26.50;45.80
32139;DHT22;18644;48.700;9.210;2023-09-30T15:37:03;26.50;45.70
32139;DHT22;18644;48.700;9.210;2023-09-30T15:39:32;26.50;45.50
32139;DHT22;18644;48.700;9.210;2023-09-30T15:42:04;26.50;45.30
32139;DHT22;18644;48.700;9.210;2023-09-30T15:44:30;26.40;45.40